WetterOnline ( http://www.wetteronline.ch )

Wetter aktuell Sonthofen/Oberallgäu

Aktuelles Wetter: Oberstdorf (812m)

6-stündlich | Neueste Meldungen
Ortszeit Temperatur Wetter
Do, 21.02. 1:00 -0.9° C fast wolkenlos
Mi, 20.02. 19:00 2.5° C bedeckt
Mi, 20.02. 13:00 5.5° C wolkig
Mi, 20.02. 7:00 -3.5° C wolkig
Mi, 20.02. 1:00 0.9° C bedeckt
Di, 19.02. 19:00 3.5° C bedeckt
Di, 19.02. 13:00 7.2° C wolkenlos
Di, 19.02. 7:00 -2.8° C leicht bewölkt
Ortszeit Temperatur Wetter
Do, 21.02. 2:30 -1.7° C bewölkt
Do, 21.02. 2:20 -1.7° C bewölkt
Do, 21.02. 2:10 -1.4° C bewölkt
Do, 21.02. 2:00 -0.5° C leicht bewölkt
Do, 21.02. 1:50 -0.5° C leicht bewölkt
Do, 21.02. 1:40 -0.2° C leicht bewölkt
Do, 21.02. 1:30 -0.7° C wolkenlos
Do, 21.02. 1:00 -0.9° C fast wolkenlos
Do, 21.02. 0:30 -0.5° C leicht bewölkt
Do, 21.02. 0:00 0.3° C wolkig
Mi, 20.02. 23:30 1.2° C leicht bewölkt
Ortszeit Relative Feuchte Sichtweite
Do, 21.02. 1:00 92% 30 km
Mi, 20.02. 19:00 82% 29 km
Mi, 20.02. 13:00 55% 70 km
Mi, 20.02. 7:00 88% 40 km
Mi, 20.02. 1:00 83% 55 km
Di, 19.02. 19:00 69% 65 km
Di, 19.02. 13:00 49% 70 km
Di, 19.02. 7:00 79% 45 km
Ortszeit Relative Feuchte Sichtweite
Do, 21.02. 2:30 89% 35 km
Do, 21.02. 2:20 89% -
Do, 21.02. 2:10 92% -
Do, 21.02. 2:00 90% 40 km
Do, 21.02. 1:50 90% -
Do, 21.02. 1:40 88% -
Do, 21.02. 1:30 92% 35 km
Do, 21.02. 1:00 92% 30 km
Do, 21.02. 0:30 90% 40 km
Do, 21.02. 0:00 90% 35 km
Mi, 20.02. 23:30 88% 35 km
Ortszeit Niederschlagsmenge Niederschlagsart
Do, 21.02. 1:00 0.0 l/m2 in 6 Std. -
Mi, 20.02. 19:00 0.0 l/m2 in 12 Std. -
Mi, 20.02. 13:00 0.0 l/m2 in 6 Std. -
Mi, 20.02. 7:00 0.0 l/m2 in 12 Std. -
Mi, 20.02. 1:00 0.0 l/m2 in 6 Std. -
Di, 19.02. 19:00 0.0 l/m2 in 12 Std. -
Di, 19.02. 13:00 0.0 l/m2 in 6 Std. -
Di, 19.02. 7:00 0.0 l/m2 in 12 Std. -
Ortszeit Niederschlagsmenge Niederschlagsart
Do, 21.02. 2:30 0.0 l/m2 in 1 Std. -
Do, 21.02. 2:20 keine Meldung -
Do, 21.02. 2:10 keine Meldung -
Do, 21.02. 2:00 0.0 l/m2 in 1 Std. -
Do, 21.02. 1:50 keine Meldung -
Do, 21.02. 1:40 keine Meldung -
Do, 21.02. 1:30 0.0 l/m2 in 1 Std. -
Do, 21.02. 1:00 0.0 l/m2 in 1 Std. -
Do, 21.02. 0:30 0.0 l/m2 in 1 Std. -
Do, 21.02. 0:00 0.0 l/m2 in 1 Std. -
Mi, 20.02. 23:30 0.0 l/m2 in 1 Std. -
Ortszeit Stärke Spitze Richtung
km/h Bft. km/h Grad Sektor
Do, 21.02. 1:00 4 1 11 170° S
Mi, 20.02. 19:00 6 1 13 150° SO
Mi, 20.02. 13:00 4 1 11 180° S
Mi, 20.02. 7:00 6 1 13 160° S
Mi, 20.02. 1:00 4 1 18 180° S
Di, 19.02. 19:00 18 3 22 150° SO
Di, 19.02. 13:00 4 1 18 170° S
Di, 19.02. 7:00 7 2 22 160° S
Ortszeit Stärke Spitze Richtung
km/h Bft. km/h Grad Sektor
Do, 21.02. 2:30 4 1 11 160° S
Do, 21.02. 2:20 4 1 - 160° S
Do, 21.02. 2:10 4 1 - 190° S
Do, 21.02. 2:00 6 1 9 180° S
Do, 21.02. 1:50 6 1 - 180° S
Do, 21.02. 1:40 6 1 - 180° S
Do, 21.02. 1:30 4 1 7 170° S
Do, 21.02. 1:00 4 1 7 170° S
Do, 21.02. 0:30 4 1 7 180° S
Do, 21.02. 0:00 4 1 7 150° SO
Mi, 20.02. 23:30 4 1 7 170° S
Ortszeit Untergrenze Bedeckung Gattung
total tief tief mittel hoch
Do, 21.02. 1:00 1800 m 1/8 1/8 - - -
Mi, 20.02. 19:00 1800 m 8/8 8/8 - - -
Mi, 20.02. 13:00 2100 m 6/8 6/8 - - -
Mi, 20.02. 7:00 2400 m 7/8 3/8 - - -
Mi, 20.02. 1:00 2100 m 8/8 8/8 - - -
Di, 19.02. 19:00 2400 m 8/8 8/8 - - -
Di, 19.02. 13:00 - 0/8 0/8 - - -
Di, 19.02. 7:00 9000 m 3/8 0/8 - - -
Ortszeit Bedeckungsgrad in Achtel und Wolkenuntergrenze
Do, 21.02. 2:30 7(3000m)
Do, 21.02. 2:20 7(3000m)
Do, 21.02. 2:10 6(3000m) 7(3600m)
Do, 21.02. 2:00 3(3600m) 5(3600m)
Do, 21.02. 1:50 3(3600m)
Do, 21.02. 1:40 2(3600m)
Do, 21.02. 1:30 keine Wolken
Do, 21.02. 1:00 1(1800m)
Do, 21.02. 0:30 1(1500m) 3(9000m)
Do, 21.02. 0:00 5(1500m)
Mi, 20.02. 23:30 4(1800m) 4(3900m)
Ortszeit Stationsdruck (hPa) Tendenz (hPa in 3 Std.)
Do, 21.02. 1:00 933 + 0,5
Mi, 20.02. 19:00 931 + 0,9
Mi, 20.02. 13:00 930 + 0,4
Mi, 20.02. 7:00 929 + 0,9
Mi, 20.02. 1:00 928 - 0,1
Di, 19.02. 19:00 927 + 0,8
Di, 19.02. 13:00 927 - 0,7
Di, 19.02. 7:00 928 + 0,4
Ortszeit Stationsdruck (hPa) Tendenz (hPa in 3 Std.)
Do, 21.02. 2:30 933 + 0,6
Do, 21.02. 2:20 933 keine Meldung
Do, 21.02. 2:10 933 keine Meldung
Do, 21.02. 2:00 933 + 0,7
Do, 21.02. 1:50 933 keine Meldung
Do, 21.02. 1:40 933 keine Meldung
Do, 21.02. 1:30 933 + 0,7
Do, 21.02. 1:00 933 + 0,5
Do, 21.02. 0:30 933 + 0,6
Do, 21.02. 0:00 933 + 0,6
Mi, 20.02. 23:30 933 + 0,8
Ortszeit Schneehöhe (cm)
Do, 21.02. 1:00 58
Mi, 20.02. 19:00 58
Mi, 20.02. 13:00 59
Mi, 20.02. 7:00 60
Mi, 20.02. 1:00 60
Di, 19.02. 19:00 60
Di, 19.02. 13:00 61
Di, 19.02. 7:00 62
Ortszeit Schneehöhe (cm)
Do, 21.02. 2:30 58
Do, 21.02. 2:20 58
Do, 21.02. 2:10 58
Do, 21.02. 2:00 58
Do, 21.02. 1:50 58
Do, 21.02. 1:40 58
Do, 21.02. 1:30 58
Do, 21.02. 1:00 58
Do, 21.02. 0:30 58
Do, 21.02. 0:00 58
Mi, 20.02. 23:30 58
Link zu dieser Seite / Seite empfehlen

Das Wetter in ...